• Join FlightAware (Why Join?)
  • Login
  • US Flag 
04:59AM EDT


 

Airport Tracker/Info


-or-


 

Live Flight TrackerFlight Track Log ✈ KAP46 ✈ 23-Jun-2013 ✈ KALB - KMSS

Flight Track Log - Related Links

Times and Time Zones

All times are in EDT time to prevent confusion due to time zone crossing. See the KAP46 flight status page for this flight to view local times or setup timezone preferences in your user account.

Time Position Orientation Groundspeed Altitude Reporting Facility
EDT Latitude Longitude Course Direction KTS MPH feet Rate Location/Type
10:38AM 42.7172 -73.8136 185° South 115 132 1,500  Level Boston Center
10:39AM 42.7147 -73.8586 266° West 125 144 2,300 720 Climbing Boston Center
10:40AM 42.7369 -73.8958 309° West 139 160 3,100 720 Climbing Boston Center
10:41AM 42.7722 -73.9081 346° North 132 152 3,900 660 Climbing Boston Center
10:42AM 42.7969 -73.9397 317° Northwest 127 146 4,500 600 Climbing Boston Center
10:43AM 42.8192 -73.9828 305° West 128 147 5,200 600 Climbing Boston Center
10:44AM 42.8397 -74.0172 309° West 131 151 5,700 600 Climbing Boston Center
10:45AM 42.8811 -74.0381 340° North 149 171 6,500 600 Climbing Boston Center
10:46AM 42.9225 -74.0506 348° North 145 167 7,100 600 Climbing Boston Center
10:47AM 42.9597 -74.0658 343° North 147 169 7,800 480 Climbing Boston Center
10:48AM 42.9992 -74.0808 344° North 147 169 8,100 60 Climbing Boston Center
10:49AM 43.0511 -74.0994 345° North 169 194 8,000 -60 Descending Boston Center
10:50AM 43.0758 -74.1114 341° North 167 192 8,000  Level Boston Center
10:51AM 43.1256 -74.1297 345° North 194 223 8,000  Level Boston Center
10:52AM 43.1775 -74.1483 345° North 181 208 8,000  Level Boston Center
10:53AM 43.2272 -74.1697 343° North 176 203 8,000  Level Boston Center
10:54AM 43.2708 -74.1822 348° North 176 203 8,000  Level Boston Center
10:55AM 43.3206 -74.2039 342° North 171 197 8,000  Level Boston Center
10:56AM 43.3619 -74.2192 345° North 171 197 8,000  Level Boston Center
10:57AM 43.4136 -74.2381 345° North 165 190 8,000  Level Boston Center
10:58AM 43.4592 -74.2564 344° North 165 190 8,000  Level Boston Center
10:59AM 43.5069 -74.2750 344° North 165 190 8,000  Level Boston Center
11:00AM 43.5525 -74.2908 346° North 165 190 8,000  Level Boston Center
11:01AM 43.5981 -74.3122 341° North 165 190 8,000  Level Boston Center
11:02AM 43.6436 -74.3281 346° North 165 190 8,000  Level Boston Center
11:03AM 43.6892 -74.3467 344° North 165 190 8,000 -60 Level Boston Center
11:04AM 43.7325 -74.3622 345° North 165 190 7,900 -60 Descending Boston Center
11:05AM 43.7781 -74.3811 343° North 165 190 7,900  Level Boston Center
11:06AM 43.8342 -74.4031 344° North 165 190 7,900  Level Boston Center
11:07AM 43.8775 -74.4189 345° North 165 190 7,900  Level Boston Center
11:08AM 43.9231 -74.4378 343° North 165 190 7,900  Level Boston Center
11:09AM 43.9686 -74.4564 344° North 165 190 7,900  Level Boston Center
11:10AM 44.0142 -74.4753 343° North 165 190 7,900  Level Boston Center
11:11AM 44.0594 -74.5000 339° North 165 190 7,900  Level Boston Center
11:12AM 44.1008 -74.5217 339° North 165 190 7,900  Level Boston Center
11:13AM 44.1483 -74.5494 337° Northwest 165 190 7,900  Level Boston Center
11:14AM 44.1894 -74.5739 337° Northwest 170 196 7,900  Level Boston Center
11:15AM 44.2411 -74.6019 339° North 170 196 7,900  Level Boston Center
11:16AM 44.2864 -74.6267 339° North 170 196 7,900  Level Boston Center
11:17AM 44.3297 -74.6517 338° Northwest 170 196 7,900  Level Boston Center
11:18AM 44.3731 -74.6764 338° Northwest 170 196 7,900 -180 Level Boston Center
11:20AM 44.4183 -74.7042 336° Northwest 170 196 7,600 -420 Descending Boston Center
11:21AM 44.4761 -74.7356 339° North 175 201 7,000 -540 Descending Boston Center
11:22AM 44.5214 -74.7636 336° Northwest 187 215 6,600 -480 Descending Boston Center
11:23AM 44.5667 -74.7886 339° North 187 215 6,100 -480 Descending Boston Center
11:24AM 44.6139 -74.8167 337° Northwest 187 215 5,700 -540 Descending Boston Center
11:25AM 44.6592 -74.8419 338° Northwest 181 208 5,100 -540 Descending Boston Center
11:26AM 44.7106 -74.8764 335° Northwest 181 208 4,700 -960 Descending Boston Center
11:27AM 44.7578 -74.9075 335° Northwest 181 208 3,200 -780 Descending Boston Center
11:28AM 44.7950 -74.9325 335° Northwest 181 208 3,200  Level Boston Center
11:29AM 44.8503 -74.9700 334° Northwest 181 208 3,200  Level Boston Center
11:30AM 44.8769 -74.9886 334° Northwest 181 208 3,200  Level Boston Center
11:31AM 44.8769 -74.9886 350° North 181 208 3,200  Level Boston Center
11:32AM 44.8769 -74.9886 350° North 181 208 3,200  Level Boston Center
11:33AM 44.8769 -74.9886 350° North 181 208 3,200  Level Boston Center
11:35AM 44.8769 -74.9886 350° North 181 208 3,200  Level Boston Center